Sunny Smile — D5DG3 — position and weather

sailwx.info

Track history (hours):
 
Tides and Currents Weather Stations Pressure Air Temp Water Temp Dewpoint Dewpoint Depression Visibility Wind Speed Wind Dir Waves Ship Positions

Sunny Smile

Last reported at 2018-Jun-21 00:13 UTC. Time now 2018-Jun-23 15:43 UTC.
Position S 34°05' E 151°19'.

Length 235 m; draft 8 m.

Type: Cargo ship. MMSI: 636015871.

Date/timePositionNaut miles runAvg speedWind from/ knotsBaromVisibWave heightAir tempDewpointWater temp
2018-Jun-21 00:13S 34°05' E 151°19'413.0
2018-Jun-20 23:56S 34°02' E 151°22'613.1
2018-Jun-20 23:30S 33°58' E 151°26'713.2
2018-Jun-20 23:00S 33°54' E 151°32'713.6
2018-Jun-20 22:30S 33°48' E 151°37'713.6
2018-Jun-20 22:00S 33°43' E 151°42'713.3
2018-Jun-20 21:30S 33°38' E 151°47'813.1
2018-Jun-20 20:53S 33°31' E 151°53'2413.1
2018-Jun-20 19:02S 33°12' E 152°10'112.4
2018-Jun-20 19:00S 33°11' E 152°11'612.9
2018-Jun-20 18:30S 33°07' E 152°16'612.2
2018-Jun-20 18:00S 33°02' E 152°20'612.3
2018-Jun-20 17:30S 32°57' E 152°25'612.4
2018-Jun-20 17:00S 32°53' E 152°30'612.4
2018-Jun-20 16:30S 32°48' E 152°35'612.4
2018-Jun-20 16:00S 32°43' E 152°39'612.3
2018-Jun-20 15:30S 32°38' E 152°43'712.1
2018-Jun-20 14:54S 32°32' E 152°47'  
Track history (hours):
 
Tides and Currents Weather Stations Pressure Air Temp Water Temp Dewpoint Dewpoint Depression Visibility Wind Speed Wind Dir Waves Ship Positions

Sunny Smile

Last reported at 2018-Jun-21 00:13 UTC. Time now 2018-Jun-23 15:43 UTC.
Position S 34°05' E 151°19'.

Length 235 m; draft 8 m.

Type: Cargo ship. MMSI: 636015871.

Date/timePositionNaut miles runAvg speedWind from/ knotsBaromVisibWave heightAir tempDewpointWater temp
2018-Jun-21 00:13S 34°05' E 151°19'413.0
2018-Jun-20 23:56S 34°02' E 151°22'613.1
2018-Jun-20 23:30S 33°58' E 151°26'713.2
2018-Jun-20 23:00S 33°54' E 151°32'713.6
2018-Jun-20 22:30S 33°48' E 151°37'713.6
2018-Jun-20 22:00S 33°43' E 151°42'713.3
2018-Jun-20 21:30S 33°38' E 151°47'813.1
2018-Jun-20 20:53S 33°31' E 151°53'2413.1
2018-Jun-20 19:02S 33°12' E 152°10'112.4
2018-Jun-20 19:00S 33°11' E 152°11'612.9
2018-Jun-20 18:30S 33°07' E 152°16'612.2
2018-Jun-20 18:00S 33°02' E 152°20'612.3
2018-Jun-20 17:30S 32°57' E 152°25'612.4
2018-Jun-20 17:00S 32°53' E 152°30'612.4
2018-Jun-20 16:30S 32°48' E 152°35'612.4
2018-Jun-20 16:00S 32°43' E 152°39'612.3
2018-Jun-20 15:30S 32°38' E 152°43'712.1
2018-Jun-20 14:54S 32°32' E 152°47'  

Dump ship's entire track history